createdAt,value
2022-10-17T00:02:22.129Z,100768.69
2022-10-17T00:04:52.202Z,100778.00
2022-10-17T00:07:22.052Z,100775.16
2022-10-17T00:09:52.830Z,100768.69
2022-10-17T00:12:22.992Z,100775.94
2022-10-17T00:14:53.060Z,100773.50
2022-10-17T00:17:25.045Z,100776.75
2022-10-17T00:19:55.200Z,100783.66
2022-10-17T00:22:27.789Z,100779.97
2022-10-17T00:25:08.412Z,100779.19
2022-10-17T00:27:40.048Z,100781.19
2022-10-17T00:30:14.586Z,100789.34
2022-10-17T00:32:46.177Z,100785.28
2022-10-17T00:35:17.010Z,100793.78
2022-10-17T00:37:47.003Z,100796.63
2022-10-17T00:40:17.095Z,100800.28
2022-10-17T00:42:48.310Z,100806.38
2022-10-17T00:45:26.611Z,100814.06
2022-10-17T00:48:09.829Z,100804.31
2022-10-17T00:50:50.694Z,100811.63
2022-10-17T00:53:21.893Z,100813.25
2022-10-17T00:55:56.669Z,100822.16
2022-10-17T00:58:27.041Z,100818.91
2022-10-17T01:00:56.938Z,100818.53
2022-10-17T01:03:29.244Z,100818.91
2022-10-17T01:05:59.976Z,100810.00
2022-10-17T01:08:30.058Z,100820.13
2022-10-17T01:11:26.849Z,100819.31
2022-10-17T01:14:07.609Z,100825.78
2022-10-17T01:16:53.579Z,100824.16
2022-10-17T01:20:00.660Z,100829.44
2022-10-17T01:22:42.047Z,100832.69
2022-10-17T01:25:31.887Z,100830.25
2022-10-17T01:28:35.130Z,100822.13
2022-10-17T01:31:16.018Z,100832.66
2022-10-17T01:34:01.417Z,100832.25
2022-10-17T01:37:07.621Z,100835.09
2022-10-17T01:39:48.839Z,100830.63
2022-10-17T01:42:24.189Z,100830.22
2022-10-17T01:45:02.986Z,100835.88
2022-10-17T01:47:51.156Z,100833.47
2022-10-17T01:50:28.088Z,100833.88
2022-10-17T01:53:04.847Z,100835.09
2022-10-17T01:55:38.855Z,100835.47
2022-10-17T01:58:14.945Z,100834.25
2022-10-17T02:00:49.966Z,100834.63
2022-10-17T02:03:27.233Z,100832.59
2022-10-17T02:06:00.165Z,100828.53
2022-10-17T02:08:42.485Z,100843.94
2022-10-17T02:11:24.994Z,100843.50
2022-10-17T02:14:23.333Z,100848.78
2022-10-17T02:20:20.684Z,100846.75
2022-10-17T02:26:19.552Z,100855.22
2022-10-17T02:29:14.722Z,100853.56
2022-10-17T02:31:50.715Z,100856.41
2022-10-17T02:34:27.546Z,100846.28
2022-10-17T02:37:12.136Z,100849.94
2022-10-17T02:39:44.903Z,100853.97
2022-10-17T02:42:20.649Z,100849.94
2022-10-17T02:44:52.074Z,100856.00
2022-10-17T02:47:29.453Z,100864.53
2022-10-17T02:50:00.553Z,100862.91
2022-10-17T02:52:53.595Z,100863.69
2022-10-17T02:55:30.563Z,100862.91
2022-10-17T02:58:15.562Z,100863.28
2022-10-17T03:00:46.986Z,100858.81
2022-10-17T03:03:27.106Z,100861.25
2022-10-17T03:05:57.502Z,100856.38
2022-10-17T03:08:29.185Z,100858.41
2022-10-17T03:10:59.342Z,100856.38
2022-10-17T03:13:29.637Z,100866.50
2022-10-17T03:16:00.061Z,100868.13
2022-10-17T03:18:29.994Z,100872.16
2022-10-17T03:21:03.046Z,100865.66
2022-10-17T03:23:34.544Z,100868.06
2022-10-17T03:26:06.782Z,100861.16
2022-10-17T03:28:39.449Z,100862.78
2022-10-17T03:31:16.180Z,100866.81
2022-10-17T03:33:46.161Z,100863.56
2022-10-17T03:36:20.907Z,100860.72
2022-10-17T03:38:56.359Z,100871.28
2022-10-17T03:41:26.440Z,100867.16
2022-10-17T03:43:56.712Z,100874.84
2022-10-17T03:46:26.755Z,100872.03
2022-10-17T03:48:59.538Z,100876.06
2022-10-17T03:51:29.774Z,100864.31
2022-10-17T03:54:01.253Z,100872.38
2022-10-17T03:56:34.047Z,100867.13
2022-10-17T03:59:04.651Z,100871.56
2022-10-17T04:01:35.774Z,100879.25
2022-10-17T04:04:05.883Z,100882.47
2022-10-17T04:06:36.119Z,100873.19
2022-10-17T04:09:10.600Z,100877.22
2022-10-17T04:11:55.274Z,100884.09
2022-10-17T04:14:25.411Z,100878.78
2022-10-17T04:16:55.474Z,100882.88
2022-10-17T04:19:26.646Z,100876.38
2022-10-17T04:21:57.700Z,100883.25
2022-10-17T04:24:31.945Z,100881.63
2022-10-17T04:27:02.048Z,100884.09
2022-10-17T04:29:32.120Z,100888.16
2022-10-17T04:32:02.108Z,100888.16
2022-10-17T04:34:32.067Z,100886.19
2022-10-17T04:37:02.110Z,100888.66
2022-10-17T04:39:35.248Z,100902.06
2022-10-17T04:42:05.286Z,100901.72
2022-10-17T04:44:36.194Z,100898.91
2022-10-17T04:47:06.315Z,100900.97
2022-10-17T04:49:36.574Z,100892.06
2022-10-17T04:52:07.071Z,100901.44
2022-10-17T04:54:38.627Z,100908.31
2022-10-17T04:57:08.731Z,100912.44
2022-10-17T04:59:39.470Z,100911.28
2022-10-17T05:02:09.743Z,100912.91
2022-10-17T05:04:40.829Z,100919.84
2022-10-17T05:07:11.689Z,100915.41
2022-10-17T05:10:02.877Z,100914.63
2022-10-17T05:12:35.847Z,100925.63
2022-10-17T05:15:06.567Z,100922.00
2022-10-17T05:17:36.840Z,100930.13
2022-10-17T05:20:11.348Z,100928.13
2022-10-17T05:22:42.197Z,100930.56
2022-10-17T05:25:50.768Z,100933.81
2022-10-17T05:28:21.080Z,100936.66
2022-10-17T05:30:51.502Z,100937.94
2022-10-17T05:33:21.682Z,100941.97
2022-10-17T05:35:52.208Z,100948.88
2022-10-17T05:38:22.234Z,100944.38
2022-10-17T05:40:53.831Z,100952.09
2022-10-17T05:43:23.948Z,100948.44
2022-10-17T05:45:54.567Z,100948.84
2022-10-17T05:48:26.096Z,100952.91
2022-10-17T05:51:01.783Z,100956.94
2022-10-17T05:53:34.470Z,100961.78
2022-10-17T05:56:12.853Z,100961.31
2022-10-17T05:58:50.985Z,100964.56
2022-10-17T06:01:25.586Z,100960.88
2022-10-17T06:03:56.480Z,100951.88
2022-10-17T06:06:26.542Z,100967.69
2022-10-17T06:08:59.557Z,100968.47
2022-10-17T06:11:34.851Z,100963.97
2022-10-17T06:14:05.759Z,100962.28
2022-10-17T06:16:35.957Z,100967.53
2022-10-17T06:19:06.006Z,100965.00
2022-10-17T06:21:38.220Z,100966.56
2022-10-17T06:24:08.368Z,100966.91
2022-10-17T06:26:40.764Z,100966.88
2022-10-17T06:29:12.121Z,100970.84
2022-10-17T06:31:42.860Z,100972.38
2022-10-17T06:34:13.051Z,100964.16
2022-10-17T06:36:43.211Z,100962.41
2022-10-17T06:39:13.742Z,100972.94
2022-10-17T06:41:45.376Z,100961.84
2022-10-17T06:44:15.727Z,100969.09
2022-10-17T06:46:45.854Z,100956.78
2022-10-17T06:49:16.297Z,100970.97
2022-10-17T06:51:49.293Z,100968.06
2022-10-17T06:54:19.689Z,100972.47
2022-10-17T06:56:54.528Z,100969.56
2022-10-17T06:59:27.435Z,100963.41
2022-10-17T07:01:57.444Z,100960.06
2022-10-17T07:04:27.878Z,100955.88
2022-10-17T07:07:06.951Z,100955.41
2022-10-17T07:09:37.355Z,100961.88
2022-10-17T07:12:13.215Z,100959.34
2022-10-17T07:14:47.907Z,100957.25
2022-10-17T07:17:27.337Z,100960.09
2022-10-17T07:19:57.700Z,100968.19
2022-10-17T07:22:27.834Z,100969.72
2022-10-17T07:24:58.067Z,100966.31
2022-10-17T07:27:29.866Z,100960.50
2022-10-17T07:30:00.786Z,100959.94
2022-10-17T07:32:31.166Z,100964.28
2022-10-17T07:35:01.799Z,100962.63
2022-10-17T07:37:32.619Z,100960.06
2022-10-17T07:40:03.424Z,100964.88
2022-10-17T07:45:14.040Z,100965.06
2022-10-17T07:47:44.827Z,100972.72
2022-10-17T07:50:14.954Z,100978.75
2022-10-17T07:52:47.813Z,100968.88
2022-10-17T07:55:27.106Z,100971.25
2022-10-17T07:58:01.739Z,100969.53
2022-10-17T08:00:33.644Z,100969.81
2022-10-17T08:03:03.930Z,100965.19
2022-10-17T08:05:35.408Z,100972.03
2022-10-17T08:08:13.578Z,100967.44
2022-10-17T08:10:49.359Z,100972.22
2022-10-17T08:13:21.099Z,100975.34
2022-10-17T08:15:51.584Z,100974.91
2022-10-17T08:18:21.681Z,100979.31
2022-10-17T08:20:54.542Z,100965.72
2022-10-17T08:23:25.650Z,100966.06
2022-10-17T08:25:56.049Z,100973.00
2022-10-17T08:28:28.144Z,100971.75
2022-10-17T08:31:26.338Z,100969.69
2022-10-17T08:34:00.623Z,100969.31
2022-10-17T08:36:31.234Z,100985.72
2022-10-17T08:39:04.301Z,100973.88
2022-10-17T08:41:53.371Z,100969.38
2022-10-17T08:44:48.383Z,100974.75
2022-10-17T08:47:31.227Z,100967.41
2022-10-17T08:50:06.612Z,100967.47
2022-10-17T08:52:44.501Z,100970.34
2022-10-17T08:57:55.837Z,100974.53
2022-10-17T09:00:34.780Z,100970.44
2022-10-17T09:03:31.215Z,100977.88
2022-10-17T09:06:23.282Z,100973.81
2022-10-17T09:09:31.209Z,100980.84
2022-10-17T09:12:18.387Z,100968.69
2022-10-17T09:15:32.008Z,100980.19
2022-10-17T09:18:16.663Z,100978.28
2022-10-17T09:20:55.581Z,100971.00
2022-10-17T09:23:42.460Z,100981.28
2022-10-17T09:26:15.369Z,100972.72
2022-10-17T09:28:49.316Z,100972.38
2022-10-17T09:31:27.637Z,100969.13
2022-10-17T09:34:27.525Z,100969.63
2022-10-17T09:37:01.166Z,100969.28
2022-10-17T09:39:33.594Z,100965.69
2022-10-17T09:42:05.536Z,100966.09
2022-10-17T09:44:58.006Z,100958.41
2022-10-17T09:47:37.117Z,100960.91
2022-10-17T09:50:22.561Z,100960.97
2022-10-17T09:53:46.395Z,100961.50
2022-10-17T09:56:20.642Z,100951.06
2022-10-17T09:59:01.344Z,100956.44
2022-10-17T10:01:35.540Z,100962.22
2022-10-17T10:04:15.302Z,100957.34
2022-10-17T10:07:07.777Z,100951.69
2022-10-17T10:09:41.882Z,100954.22
2022-10-17T10:12:24.058Z,100949.78
2022-10-17T10:14:55.535Z,100956.81
2022-10-17T10:17:45.503Z,100955.19
2022-10-17T10:20:35.187Z,100954.44
2022-10-17T10:23:18.522Z,100961.81
2022-10-17T10:26:01.493Z,100955.75
2022-10-17T10:28:36.713Z,100950.88
2022-10-17T10:31:39.658Z,100959.91
2022-10-17T10:34:24.764Z,100954.66
2022-10-17T10:37:03.053Z,100956.78
2022-10-17T10:39:48.364Z,100951.91
2022-10-17T10:42:30.720Z,100960.50
2022-10-17T10:45:09.280Z,100951.16
2022-10-17T10:47:51.949Z,100968.34
2022-10-17T10:50:32.526Z,100964.31
2022-10-17T10:53:35.467Z,100950.88
2022-10-17T10:56:22.642Z,100968.50
2022-10-17T10:59:04.890Z,100952.63
2022-10-17T11:02:01.847Z,100958.38
2022-10-17T11:04:44.184Z,100959.66
2022-10-17T11:07:24.186Z,100963.41
2022-10-17T11:10:07.034Z,100958.53
2022-10-17T11:15:30.299Z,100954.16
2022-10-17T11:18:14.952Z,100960.69
2022-10-17T11:21:05.309Z,100966.00
2022-10-17T11:23:46.017Z,100955.06
2022-10-17T11:26:27.753Z,100951.88
2022-10-17T11:29:07.370Z,100958.84
2022-10-17T11:31:53.073Z,100946.66
2022-10-17T11:34:29.265Z,100946.28
2022-10-17T11:37:06.611Z,100948.41
2022-10-17T11:39:59.261Z,100961.09
2022-10-17T11:43:01.150Z,100957.44
2022-10-17T11:45:50.565Z,100956.31
2022-10-17T11:48:30.231Z,100953.47
2022-10-17T11:54:18.580Z,100958.03
2022-10-17T11:57:18.569Z,100952.34
2022-10-17T12:00:23.289Z,100956.88
2022-10-17T12:03:25.288Z,100968.75
2022-10-17T12:06:14.475Z,100956.56
2022-10-17T12:08:56.428Z,100952.13
2022-10-17T12:11:46.145Z,100951.34
2022-10-17T12:14:41.446Z,100952.97
2022-10-17T12:17:39.597Z,100953.84
2022-10-17T12:20:44.349Z,100956.72
2022-10-17T12:23:32.352Z,100959.19
2022-10-17T12:26:05.458Z,100963.25
2022-10-17T12:28:45.302Z,100962.44
2022-10-17T12:31:33.340Z,100958.75
2022-10-17T12:34:06.988Z,100963.25
2022-10-17T12:36:53.143Z,100960.00
2022-10-17T12:39:56.226Z,100969.41
2022-10-17T12:43:02.900Z,100977.97
2022-10-17T12:45:52.015Z,100979.19
2022-10-17T12:49:42.741Z,100984.13
2022-10-17T12:53:00.364Z,100986.59
2022-10-17T12:55:36.127Z,100977.63
2022-10-17T12:58:16.011Z,100980.91
2022-10-17T13:03:50.419Z,100974.00
2022-10-17T13:06:26.450Z,100971.19
2022-10-17T13:09:05.567Z,100974.47
2022-10-17T13:11:39.977Z,100973.66
2022-10-17T13:14:16.307Z,100974.88
2022-10-17T13:16:58.416Z,100983.44
2022-10-17T13:19:32.479Z,100985.53
2022-10-17T13:22:07.272Z,100985.56
2022-10-17T13:24:41.336Z,100984.72
2022-10-17T13:27:31.120Z,100985.16
2022-10-17T13:30:05.453Z,100989.22
2022-10-17T13:33:01.148Z,100975.41
2022-10-17T13:35:58.789Z,100989.22
2022-10-17T13:38:42.654Z,100996.13
2022-10-17T13:44:18.537Z,100987.59
2022-10-17T13:46:48.910Z,100994.13
2022-10-17T13:49:28.043Z,100998.19
2022-10-17T13:52:01.049Z,100997.00
2022-10-17T13:54:43.656Z,101004.72
2022-10-17T13:57:27.624Z,101005.94
2022-10-17T14:00:01.682Z,101006.38
2022-10-17T14:02:35.246Z,100998.25
2022-10-17T14:05:18.307Z,101008.44
2022-10-17T14:10:54.682Z,101008.81
2022-10-17T14:13:36.778Z,101013.28
2022-10-17T14:16:09.073Z,101017.38
2022-10-17T14:18:41.153Z,101018.19
2022-10-17T14:24:31.137Z,101021.44
2022-10-17T14:27:03.185Z,101017.38
2022-10-17T14:29:53.865Z,101020.66
2022-10-17T14:32:25.031Z,101027.16
2022-10-17T14:35:18.831Z,101027.59
2022-10-17T14:38:03.853Z,101027.97
2022-10-17T14:40:37.240Z,101029.19
2022-10-17T14:43:08.983Z,101030.47
2022-10-17T14:45:41.897Z,101033.69
2022-10-17T14:48:18.559Z,101029.66
2022-10-17T14:51:12.983Z,101033.31
2022-10-17T14:54:05.080Z,101034.94
2022-10-17T14:56:43.358Z,101040.22
2022-10-17T14:59:30.033Z,101045.13
2022-10-17T15:02:07.562Z,101046.75
2022-10-17T15:04:37.718Z,101045.16
2022-10-17T15:07:07.899Z,101048.00
2022-10-17T15:09:38.346Z,101048.34
2022-10-17T15:12:18.208Z,101047.94
2022-10-17T15:14:49.939Z,101056.09
2022-10-17T15:17:30.191Z,101060.97
2022-10-17T15:20:02.441Z,101064.22
2022-10-17T15:22:35.466Z,101058.94
2022-10-17T15:25:07.187Z,101058.56
2022-10-17T15:27:41.998Z,101063.84
2022-10-17T15:30:25.287Z,101071.53
2022-10-17T15:32:57.492Z,101074.00
2022-10-17T15:36:05.466Z,101077.25
2022-10-17T15:38:36.895Z,101075.25
2022-10-17T15:41:15.567Z,101069.94
2022-10-17T15:44:04.113Z,101079.69
2022-10-17T15:46:38.140Z,101080.53
2022-10-17T15:49:23.634Z,101081.75
2022-10-17T15:51:55.458Z,101082.13
2022-10-17T15:54:28.687Z,101091.09
2022-10-17T15:57:02.502Z,101091.47
2022-10-17T15:59:37.432Z,101094.34
2022-10-17T16:02:14.615Z,101102.47
2022-10-17T16:04:47.126Z,101095.16
2022-10-17T16:07:17.408Z,101099.22
2022-10-17T16:09:48.714Z,101098.41
2022-10-17T16:15:30.507Z,101102.88
2022-10-17T16:18:04.237Z,101109.41
2022-10-17T16:20:38.440Z,101104.09
2022-10-17T16:23:11.848Z,101100.03
2022-10-17T16:25:42.320Z,101108.19
2022-10-17T16:28:14.163Z,101106.13
2022-10-17T16:30:51.961Z,101113.84
2022-10-17T16:33:43.314Z,101112.66
2022-10-17T16:36:15.472Z,101115.09
2022-10-17T16:38:45.869Z,101121.56
2022-10-17T16:41:28.736Z,101116.72
2022-10-17T16:44:01.482Z,101130.94
2022-10-17T16:46:37.801Z,101126.47
2022-10-17T16:49:15.757Z,101125.63
2022-10-17T16:51:56.260Z,101139.06
2022-10-17T16:54:33.571Z,101130.09
2022-10-17T16:57:10.696Z,101130.09
2022-10-17T16:59:44.006Z,101131.31
2022-10-17T17:02:17.557Z,101136.22
2022-10-17T17:04:53.644Z,101137.44
2022-10-17T17:07:30.596Z,101132.13
2022-10-17T17:10:02.032Z,101133.75
2022-10-17T17:12:36.591Z,101140.25
2022-10-17T17:15:08.269Z,101143.88
2022-10-17T17:17:50.540Z,101138.59
2022-10-17T17:20:37.073Z,101141.84
2022-10-17T17:23:15.746Z,101136.56
2022-10-17T17:25:48.427Z,101135.72
2022-10-17T17:28:19.944Z,101139.00
2022-10-17T17:30:51.371Z,101139.41
2022-10-17T17:33:25.327Z,101139.00
2022-10-17T17:36:02.576Z,101146.69
2022-10-17T17:38:36.014Z,101147.09
2022-10-17T17:41:06.621Z,101147.91
2022-10-17T17:43:37.994Z,101152.78
2022-10-17T17:46:21.207Z,101147.91
2022-10-17T17:49:04.088Z,101145.47
2022-10-17T17:51:39.710Z,101140.59
2022-10-17T17:54:13.112Z,101138.56
2022-10-17T17:56:48.062Z,101138.16
2022-10-17T17:59:22.308Z,101139.78
2022-10-17T18:01:53.055Z,101143.84
2022-10-17T18:04:25.565Z,101146.69
2022-10-17T18:07:00.171Z,101146.69
2022-10-17T18:09:32.043Z,101145.91
2022-10-17T18:12:02.110Z,101140.59
2022-10-17T18:14:36.339Z,101145.91
2022-10-17T18:17:06.825Z,101149.94
2022-10-17T18:19:37.109Z,101144.25
2022-10-17T18:22:07.397Z,101150.38
2022-10-17T18:24:39.711Z,101147.53
2022-10-17T18:27:10.016Z,101145.47
2022-10-17T18:29:39.638Z,101144.63
2022-10-17T18:32:09.781Z,101141.78
2022-10-17T18:34:40.225Z,101149.53
2022-10-17T18:37:10.704Z,101147.91
2022-10-17T18:39:43.027Z,101152.78
2022-10-17T18:42:13.144Z,101152.75
2022-10-17T18:44:44.044Z,101149.91
2022-10-17T18:47:14.079Z,101154.78
2022-10-17T18:49:44.011Z,101152.38
2022-10-17T18:52:15.776Z,101153.16
2022-10-17T18:54:47.993Z,101153.56
2022-10-17T18:57:21.450Z,101150.31
2022-10-17T18:59:54.282Z,101148.69
2022-10-17T19:02:24.451Z,101152.75
2022-10-17T19:04:54.172Z,101154.78
2022-10-17T19:07:24.632Z,101149.09
2022-10-17T19:09:56.181Z,101156.78
2022-10-17T19:12:26.363Z,101145.44
2022-10-17T19:14:57.742Z,101151.13
2022-10-17T19:17:28.220Z,101149.09
2022-10-17T19:19:58.622Z,101143.41
2022-10-17T19:22:28.848Z,101143.41
2022-10-17T19:25:03.398Z,101145.84
2022-10-17T19:27:33.834Z,101142.19
2022-10-17T19:30:04.114Z,101147.06
2022-10-17T19:32:34.749Z,101144.22
2022-10-17T19:35:05.820Z,101138.53
2022-10-17T19:37:36.533Z,101144.22
2022-10-17T19:40:10.848Z,101140.56
2022-10-17T19:42:41.027Z,101136.09
2022-10-17T19:45:12.982Z,101140.94
2022-10-17T19:47:43.139Z,101138.09
2022-10-17T19:50:13.283Z,101139.31
2022-10-17T19:52:43.507Z,101138.53
2022-10-17T19:55:15.501Z,101134.06
2022-10-17T19:57:45.985Z,101136.47
2022-10-17T20:00:18.105Z,101139.72
2022-10-17T20:02:48.320Z,101128.78
2022-10-17T20:05:19.328Z,101131.19
2022-10-17T20:07:50.735Z,101127.94
2022-10-17T20:10:24.086Z,101129.16
2022-10-17T20:12:54.478Z,101129.53
2022-10-17T20:15:24.887Z,101131.53
2022-10-17T20:17:55.344Z,101135.19
2022-10-17T20:20:25.134Z,101138.03
2022-10-17T20:22:55.598Z,101130.31
2022-10-17T20:25:27.910Z,101133.94
2022-10-17T20:27:57.973Z,101135.56
2022-10-17T20:30:28.553Z,101129.44
2022-10-17T20:32:58.275Z,101136.34
2022-10-17T20:35:28.414Z,101131.06
2022-10-17T20:37:58.327Z,101128.63
2022-10-17T20:40:35.160Z,101139.19
2022-10-17T20:43:08.376Z,101131.44
2022-10-17T20:45:50.705Z,101140.38
2022-10-17T20:48:21.810Z,101140.75
2022-10-17T20:50:52.645Z,101133.47
2022-10-17T20:53:39.223Z,101136.69
2022-10-17T20:56:21.692Z,101129.78
2022-10-17T20:58:57.211Z,101130.19
2022-10-17T21:01:28.778Z,101131.38
2022-10-17T21:04:10.589Z,101130.53
2022-10-17T21:06:49.304Z,101135.38
2022-10-17T21:09:19.234Z,101124.81
2022-10-17T21:11:55.481Z,101131.69
2022-10-17T21:14:27.680Z,101128.84
2022-10-17T21:17:01.023Z,101132.88
2022-10-17T21:19:33.592Z,101127.59
2022-10-17T21:22:04.373Z,101126.34
2022-10-17T21:24:34.898Z,101126.75
2022-10-17T21:27:09.352Z,101121.84
2022-10-17T21:29:39.959Z,101128.31
2022-10-17T21:32:19.565Z,101128.31
2022-10-17T21:35:00.741Z,101135.59
2022-10-17T21:37:31.141Z,101125.47
2022-10-17T21:40:01.031Z,101136.00
2022-10-17T21:42:33.634Z,101129.13
2022-10-17T21:45:10.551Z,101127.09
2022-10-17T21:48:11.108Z,101128.31
2022-10-17T21:50:36.486Z,101134.38
2022-10-17T21:53:06.918Z,101127.88
2022-10-17T21:55:39.295Z,101127.47
2022-10-17T21:58:11.438Z,101117.34
2022-10-17T22:00:41.383Z,101122.19
2022-10-17T22:03:13.193Z,101133.53
2022-10-17T22:05:43.453Z,101121.38
2022-10-17T22:08:14.313Z,101113.66
2022-10-17T22:10:44.785Z,101119.34
2022-10-17T22:13:16.583Z,101117.72
2022-10-17T22:15:46.912Z,101116.91
2022-10-17T22:18:17.340Z,101105.13
2022-10-17T22:20:47.558Z,101101.50
2022-10-17T22:23:17.553Z,101104.34
2022-10-17T22:25:55.296Z,101105.97
2022-10-17T22:28:28.729Z,101108.81
2022-10-17T22:30:59.346Z,101108.81
2022-10-17T22:33:29.646Z,101103.13
2022-10-17T22:35:59.864Z,101102.28
2022-10-17T22:38:30.003Z,101106.34
2022-10-17T22:41:00.252Z,101108.38
2022-10-17T22:43:32.908Z,101107.53
2022-10-17T22:46:06.573Z,101114.44
2022-10-17T22:48:37.216Z,101114.84
2022-10-17T22:51:07.317Z,101118.06
2022-10-17T22:53:38.069Z,101114.81
2022-10-17T22:56:12.957Z,101114.78
2022-10-17T22:58:45.620Z,101116.81
2022-10-17T23:01:18.675Z,101122.88
2022-10-17T23:03:49.312Z,101107.47
2022-10-17T23:06:19.551Z,101121.66
2022-10-17T23:08:49.884Z,101119.19
2022-10-17T23:11:21.224Z,101121.63
2022-10-17T23:13:53.839Z,101111.84
2022-10-17T23:16:23.667Z,101105.75
2022-10-17T23:18:54.090Z,101112.66
2022-10-17T23:21:24.611Z,101107.34
2022-10-17T23:23:54.996Z,101110.59
2022-10-17T23:26:25.195Z,101108.94
2022-10-17T23:28:59.068Z,101106.53
2022-10-17T23:31:29.186Z,101094.75
2022-10-17T23:34:01.986Z,101103.25
2022-10-17T23:39:08.092Z,101098.00
2022-10-17T23:41:38.258Z,101102.81
2022-10-17T23:44:11.428Z,101099.19
2022-10-17T23:46:41.233Z,101104.03
2022-10-17T23:49:11.293Z,101097.56
2022-10-17T23:51:41.212Z,101094.31
2022-10-17T23:54:11.502Z,101098.78
2022-10-17T23:56:41.181Z,101098.38
2022-10-17T23:59:13.875Z,101094.34
